Pahranagat National Wildlife Refuge, Nevada Weather observations

Data are for 10 minute period ending at time listed.
 Day   Time   Solar   Ave.   Ave.  Ave.  Vector  Max.   Baro.   Total    
  of    of     Rad.   Air    Rel.  Wind   Wind   Wind  Press.  Precip.   
Year   Day            Temp.  Hum.  Speed  Dir.   Gust                    
2015   (PST)  Kw/m2    F      %     mph   deg.    mph    mb.     in.     
-------------------------------------------------------------------------
 187   19:50   0.00   73.8    42    2.5   351     3.9   902.5    0.00 
 187   20:00   0.00   74.5    39    2.2   351     3.2   902.5    0.00 
 187   20:10   0.00   74.6    39    2.6    24     3.7   902.5    0.00 
 187   20:20   0.00   72.9    50    1.6   218     2.9   902.5    0.00 
 187   20:30   0.00   69.6    58    1.7   262     3.6   902.5    0.00 
 187   20:40   0.00   68.6    56    1.7   241     3.6   902.7    0.00 
 187   20:50   0.00   70.8    47    2.8    48     3.7   902.6    0.00 
 187   21:00   0.00   73.1    42    4.2    81     5.6   902.6    0.00 
 187   21:10   0.00   75.1    38    3.1    71     5.3   902.6    0.00 
 187   21:20   0.00   71.5    50    1.8   260     6.0   902.7    0.00 
 187   21:30   0.00   70.3    52    1.4   334     3.8   902.8    0.00 
 187   21:40   0.00   71.5    46    4.8   120     8.6   903.1    0.00 
 187   21:50   0.00   76.4    34    4.6   103     7.3   903.0    0.00 
 187   22:00   0.00   75.0    41    2.4   249     4.0   903.0    0.00 
 187   22:10   0.00   70.0    51    4.0   340     5.1   903.1    0.00 
 187   22:20   0.00   69.7    52    2.4   319     4.5   903.2    0.00 
 187   22:30   0.00   69.8    50    1.8     1     3.3   903.4    0.00 
 187   22:40   0.00   69.8    51    0.8    76     1.8   903.5    0.00 
 187   22:50   0.00   71.0    48    3.0     5     5.3   903.5    0.00 
 187   23:00   0.00   71.3    49    3.6   324     5.4   903.5    0.00 
 187   23:10   0.00   69.6    56    2.7   335     3.8   903.4    0.00 
 187   23:20   0.00   69.1    58    1.4   291     2.5   903.4    0.00 
 187   23:30   0.00   68.7    60    1.4   194     2.3   903.4    0.00 
 187   23:40   0.00   69.3    56    1.4   324     2.9   903.3    0.00 
 187   23:50   0.00   70.1    54    2.7    10     3.1   903.3    0.00 
 188    0:00   0.00   71.0    50    3.2    32     4.4   903.2    0.00 
 188    0:10   0.00   69.7    53    4.7   335     6.4   903.4    0.00 
 188    0:20   0.00   68.9    54    5.3   333     8.0   903.5    0.00 
 188    0:30   0.00   70.6    51    4.4     4     6.2   903.5    0.00 
 188    0:40   0.00   70.1    52    3.8   335     5.3   903.5    0.00 
 188    0:50   0.00   67.7    58    4.0   312     4.6   903.6    0.00 
 188    1:00   0.00   67.1    60    3.8   312     4.7   903.5    0.00 
 188    1:10   0.00   67.4    60    3.7   318     4.9   903.4    0.00 
 188    1:20   0.00   67.1    62    2.6   322     4.5   903.3    0.00 
 188    1:30   0.00   66.9    62    4.1   308     4.7   903.2    0.00 
 188    1:40   100.00  99999.0   99999  99999.0   99999   99999.0   99999.0   99999.00 
 188    1:50   0.00   66.1    64    2.8   343     4.1   903.0    0.00 
 188    2:00   0.00   66.5    62    1.3   352     3.1   902.9    0.00 
 188    2:10   0.00   66.6    62    0.1   339     1.0   902.9    0.00 
 188    2:20   0.00   67.3    59    1.4    43     3.1   902.8    0.00 
 188    2:30   0.00   67.8    57    1.0    70     2.4   902.8    0.00 
 188    2:40   0.00   68.3    56    0.8    12     2.9   902.8    0.00 
 188    2:50   0.00   68.8    55    0.4   313     1.4   902.8    0.00 
 188    3:00   0.00   68.7    55    1.5   360     2.7   902.8    0.00 
 188    3:10   0.00   67.5    58    0.2   274     1.8   902.9    0.00 
 188    3:20   0.00   65.6    65    0.6    59     3.1   902.9    0.00 
 188    3:30   0.00   66.5    61    1.7    68     2.3   902.9    0.00 
 188    3:40   0.00   69.1    53    1.9    97     2.7   903.0    0.00 
 188    3:50   0.00   70.4    51    1.8    10     4.1   903.0    0.00 
 188    4:00   0.00   69.4    54    3.9    13     5.1   903.1    0.00 
 188    4:10   0.00   70.2    52    1.2    46     2.9   903.1    0.00 
 188    4:20   0.00   69.3    56    2.0   242     3.7   903.2    0.00 
 188    4:30   0.00   68.6    58    1.5   240     2.1   903.3    0.00 
 188    4:40   0.00   68.0    60    2.6   245     3.3   903.3    0.00 
 188    4:50   0.01   67.3    63    2.4   281     2.9   903.3    0.00 
 188    5:00   0.01   67.5    62    1.5   270     2.4   903.3    0.00 
 188    5:10   0.02   68.4    61    0.2   246     1.2   903.4    0.00 
 188    5:20   0.03   68.5    60    1.0   342     2.6   903.4    0.00 
 188    5:30   0.04   69.2    60    2.0    28     3.4   903.5    0.00 
 188    5:40   0.04   70.3    56    2.0    36     2.6   903.6    0.00 
 188    5:50   0.05   70.9    55    2.0    28     3.7   903.6    0.00 
 188    6:00   0.06   71.1    57    2.7     3     3.9   903.6    0.00 
 188    6:10   0.07   71.3    59    3.1   337     4.7   903.8    0.00 
 188    6:20   0.07   71.3    61    2.3   316     3.1   903.8    0.00 
 188    6:30   0.07   71.5    62    1.8   308     3.4   903.7    0.00 
 188    6:40   0.07   71.8    62    1.5   307     2.9   903.8    0.00 
 188    6:50   0.08   72.0    59    2.7   327     4.1   903.9    0.00 
 188    7:00   0.10   72.4    56    3.4   334     4.7   904.0    0.00 
 188    7:10   0.11   72.8    57    3.5   346     6.0   904.1    0.00 
 188    7:20   0.12   73.2    56    3.3   345     4.8   904.1    0.00 
 188    7:30   0.12   73.7    55    3.4   345     4.7   904.0    0.00 
 188    7:40   0.23   74.6    55    3.4   337     6.0   903.9    0.00 
 188    7:50   0.27   75.4    52    4.1   338     6.4   903.9    0.00 
 188    8:00   0.47   77.7    45    6.0   339     9.2   903.8    0.00 
 188    8:10   0.22   77.5    43    5.0   342     8.3   903.6    0.00 
 188    8:20   0.22   76.8    46    4.9   334     7.7   903.5    0.00 
 188    8:30   0.24   77.0    46    5.2   336     8.6   903.4    0.00 
 188    8:40   0.23   76.8    47    5.8   334     8.6   903.2    0.00 
 188    8:50   0.23   76.7    45    6.2   338     8.6   903.2    0.00 
 188    9:00   0.23   77.0    45    5.1   332     7.8   903.1    0.00 
 188    9:10   0.24   77.6    44    4.5   338     6.9   903.0    0.00 
 188    9:20   0.27   78.0    44    4.9   337     7.7   902.8    0.00 
 188    9:30   0.60   80.2    37    3.8   305     6.2   902.8    0.00 
 188    9:40   0.81   84.1    31    2.8   235     5.8   902.7    0.00 
 188    9:50   0.72   85.1    30    2.6   328     5.3   902.6    0.00 
 188   10:00   0.66   85.2    30    2.6   268     5.3   902.5    0.00 
 188   10:10   0.85   86.6    28    2.5   131     6.6   902.4    0.00 
 188   10:20   0.82   87.2    28    3.7   279     8.0   902.3    0.00 
 188   10:30   0.81   88.5    26    4.1   193     8.3   902.2    0.00 
 188   10:40   0.63   89.0    25    2.8   153     6.4   902.2    0.00 
 188   10:50   0.81   89.0    24    1.7   141     5.0   902.2    0.00 
 188   11:00   0.88   91.5    22    2.4   187     6.6   902.0    0.00 
 188   11:10   0.87   91.7    21    3.5   196    11.7   901.8    0.00 
 188   11:20   0.83   91.1    21    3.1   180     7.6   901.6    0.00 
 188   11:30   0.82   91.3    21    4.2   138     9.6   901.4    0.00 
 188   11:40   0.81   91.7    22    5.3   161    10.2   901.2    0.00 
 188   11:50   0.82   91.8    21    4.4   137     9.9   901.0    0.00 
 188   12:00   0.82   92.0    21    3.3   145     9.6   900.9    0.00 
 188   12:10   0.83   92.4    20    5.5   126    14.7   900.7    0.00 
 188   12:20   0.79   92.1    21    7.8   120    17.8   900.5    0.00 
 188   12:30   0.82   92.4    21    7.0   133    11.5   900.3    0.00 
 188   12:40   0.82   92.9    20    5.6   174    10.7   900.1    0.00 
 188   12:50   0.81   93.1    22    7.5   178    15.3   899.9    0.00 
 188   13:00   0.80   93.2    20    3.5   109    11.1   899.7    0.00 
 188   13:10   0.80   93.1    21    9.9   150    18.0   899.6    0.00 
 188   13:20   0.64   93.1    22    8.0   142    17.3   899.5    0.00 
 188   13:30   0.62   91.3    22   10.5   118    21.6   899.2    0.00 
 188   13:40   0.81   93.1    22   10.3   140    18.9   899.2    0.00 
 188   13:50   0.79   93.6    22    9.5   163    19.4   899.2    0.00 
 188   14:00   0.78   92.9    22   10.2   131    17.0   899.1    0.00 
 188   14:10   0.76   93.1    22   10.3   134    16.5   898.9    0.00 
 188   14:20   0.73   93.1    22   11.1   139    18.4   898.8    0.00 
 188   14:30   0.46   93.1    21    7.0   134    14.8   898.6    0.00 
 188   14:40   0.31   90.1    22    8.3   126    14.3   898.4    0.00 
 188   14:50   0.18   90.3    22    7.5   143    15.9   898.2    0.00 
 188   15:00   0.09   89.7    22    6.2   138    15.9   898.1    0.00 
 188   15:10   0.07   88.5    24    7.4    74    13.8   898.2    0.00 
 188   15:20   0.07   84.9    28    8.8   323    16.2   898.0    0.00 
 188   15:30   0.07   84.4    29    5.4   325     8.5   897.7    0.00 
 188   15:40   0.07   85.6    28    5.5   350    15.0   897.6    0.00 
 188   15:50   0.09   85.3    29    8.6   350    16.1   897.6    0.00 
 188   16:00   0.13   85.2    32    5.8   302    10.4   897.6    0.00 
 188   16:10   0.09   83.8    36    6.4   313    11.3   897.7    0.04 
 188   16:20   0.08   84.8    27    6.2    45    14.4   897.3    0.01 
 188   16:30   0.09   82.4    42    4.6   360     6.3   897.1    0.00 
 188   16:40   0.32   82.6    44    5.6   305    10.5   897.2    0.00 
 188   16:50   0.42   86.7    37    2.6   312     6.7   897.3    0.00 
 188   17:00   0.31   87.7    40    2.3   296     3.9   897.1    0.01 
 188   17:10   0.39   86.8    45    1.6   227     3.0   897.0    0.00 
 188   17:20   0.16   89.1    34    0.4   160     1.7   896.9    0.00 
 188   17:30   0.06   86.7    44    1.1   155     2.3   897.0    0.00 
 188   17:40   0.04   83.7    46    1.2    31     3.1   897.0    0.00 
 188   17:50   0.02   82.4    46    1.9   295     4.0   897.0    0.00 
 188   18:00   0.02   82.2    42    3.6   182     8.3   897.2    0.00 
 188   18:10   0.01   82.1    37    2.8   242     5.0   897.2    0.00 
 188   18:20   0.01   80.4    39    6.3   275    12.4   897.4    0.00 
 188   18:30   0.02   77.9    44    5.9   311    13.1   897.5    0.00 
 188   18:40   0.02   76.5    49    6.0   311    10.2   897.4    0.00 
 188   18:50   0.02   76.5    48    2.3    38     5.8   897.4    0.00 
 188   19:00   0.01   75.5    51    1.2   234     3.1   897.4    0.00 
 188   19:10   0.00   75.3    51    2.7   333     3.9   897.5    0.00 
 188   19:20   0.00   73.2    58    2.2   319     4.3   897.7    0.00 
 188   19:30   0.00   76.4    44    6.3    21    12.9   897.7    0.00 
 188   19:40   0.00   79.2    36    7.9    37    13.0   897.8    0.00 

Return to Pahranagat N. Wildlife Refuge graphs page.


Western Regional Climate Center,wrcc@dri.edu